Time;durP1;ratioP1;P1;durP2;ratioP2;P2;SDS_P1;SDS_P2;PMS_P1;PMS_P2;Temp;Humidity;BMP_temperature;BMP_pressure;BME280_temperature;BME280_humidity;BME280_pressure;Samples;Min_cycle;Max_cycle;Signal;HPM_P1;HPM_P2
2023/12/24 00:01:45;;;;;;;1.70;0.57;;;;;;;6.71;80.39;100019.03;5028832;27;99135;-75
2023/12/24 00:04:13;;;;;;;1.60;0.90;;;;;;;6.62;81.07;100014.09;5027058;27;99262;-74
2023/12/24 00:06:39;;;;;;;1.50;0.63;;;;;;;6.75;80.40;100015.44;5027266;27;97091;-79
2023/12/24 00:09:06;;;;;;;1.25;0.70;;;;;;;6.54;80.40;100013.47;5027173;27;97879;-78
2023/12/24 00:11:32;;;;;;;0.70;0.63;;;;;;;6.62;80.05;100008.84;5029724;27;98880;-76
2023/12/24 00:13:59;;;;;;;2.90;1.08;;;;;;;6.62;80.40;100008.84;5032395;27;99232;-76
2023/12/24 00:16:25;;;;;;;2.65;1.08;;;;;;;6.80;79.19;100003.00;5031604;27;97018;-76
2023/12/24 00:18:51;;;;;;;2.45;1.10;;;;;;;6.81;79.21;99998.63;5024521;27;96755;-76
2023/12/24 00:21:19;;;;;;;2.28;1.10;;;;;;;6.75;79.12;100015.44;5023489;27;99028;-76
2023/12/24 00:23:47;;;;;;;1.95;1.50;;;;;;;6.73;78.64;100011.97;5023047;27;98084;-76
2023/12/24 00:26:14;;;;;;;1.95;1.00;;;;;;;6.76;78.88;100011.03;5029807;27;97248;-77
2023/12/24 00:28:40;;;;;;;1.20;1.00;;;;;;;6.76;79.06;99996.13;5029543;27;97034;-77
2023/12/24 00:31:06;;;;;;;1.05;0.93;;;;;;;6.75;79.11;99996.19;5031292;27;99092;-77
2023/12/24 00:33:33;;;;;;;2.63;1.33;;;;;;;6.76;78.51;100005.78;5030416;27;98967;-77
2023/12/24 00:35:59;;;;;;;1.70;0.98;;;;;;;6.76;78.42;99997.91;5030782;27;96932;-78
2023/12/24 00:38:27;;;;;;;1.13;1.10;;;;;;;6.70;78.52;100008.56;5031677;27;97151;-78
2023/12/24 00:40:53;;;;;;;1.23;1.13;;;;;;;6.72;78.77;99999.75;5019048;27;98911;-76
2023/12/24 00:43:20;;;;;;;1.60;1.17;;;;;;;7.00;77.96;99997.13;5029742;27;98802;-77
2023/12/24 00:45:47;;;;;;;1.35;0.98;;;;;;;6.69;77.96;99999.88;5030640;27;98837;-76
2023/12/24 00:48:14;;;;;;;2.72;1.30;;;;;;;6.79;78.08;99997.78;5018831;27;98635;-77
2023/12/24 00:50:40;;;;;;;1.80;1.50;;;;;;;6.69;77.67;99985.88;5029632;27;99033;-76
2023/12/24 00:53:07;;;;;;;1.75;1.40;;;;;;;6.41;79.07;99985.88;5029292;27;97632;-76
2023/12/24 00:55:34;;;;;;;1.50;1.40;;;;;;;6.38;79.66;99993.81;5030717;27;97243;-76
2023/12/24 00:58:01;;;;;;;2.47;1.95;;;;;;;6.26;80.37;99994.19;5026895;27;96940;-76
2023/12/24 01:00:27;;;;;;;3.42;1.88;;;;;;;6.44;79.85;99992.78;5025633;27;98933;-76
2023/12/24 01:02:54;;;;;;;2.30;2.10;;;;;;;6.39;79.94;99983.28;5027341;27;98799;-75
2023/12/24 01:05:20;;;;;;;4.20;2.42;;;;;;;6.34;80.11;99989.59;5028016;27;97447;-76
2023/12/24 01:07:47;;;;;;;3.00;2.70;;;;;;;6.30;80.19;99985.34;5031125;27;96745;-76
2023/12/24 01:10:13;;;;;;;3.25;2.78;;;;;;;6.05;80.39;99984.31;5030027;27;99346;-76
2023/12/24 01:12:42;;;;;;;2.75;2.55;;;;;;;6.43;80.17;99980.59;5029366;27;98808;-77
2023/12/24 01:15:09;;;;;;;3.33;2.58;;;;;;;6.62;79.20;99987.84;5030207;27;96786;-76
2023/12/24 01:17:35;;;;;;;3.22;2.65;;;;;;;6.38;79.40;99981.56;5027513;27;99165;-77
2023/12/24 01:20:03;;;;;;;3.78;3.28;;;;;;;6.59;78.77;99979.19;5030002;27;99657;-77
2023/12/24 01:22:29;;;;;;;4.60;3.03;;;;;;;6.58;79.11;99983.56;5024175;27;99285;-76
2023/12/24 01:24:56;;;;;;;3.78;2.85;;;;;;;6.57;78.59;99984.47;5029008;27;97078;-76
2023/12/24 01:27:23;;;;;;;3.58;2.88;;;;;;;6.52;78.43;99985.53;5029719;27;97168;-77
2023/12/24 01:29:52;;;;;;;3.47;3.17;;;;;;;6.50;78.66;99982.13;5029627;27;98992;-77
2023/12/24 01:32:19;;;;;;;3.60;3.30;;;;;;;6.63;78.39;99984.28;5026061;27;98897;-77
2023/12/24 01:34:45;;;;;;;4.05;3.20;;;;;;;6.47;78.99;99976.94;5026739;27;97241;-77
2023/12/24 01:37:11;;;;;;;4.05;3.55;;;;;;;6.50;78.92;99982.94;5024749;27;96778;-75
2023/12/24 01:39:41;;;;;;;4.15;3.65;;;;;;;6.47;78.78;99969.94;5029622;27;99040;-77
2023/12/24 01:42:08;;;;;;;5.25;4.05;;;;;;;6.71;78.25;99971.78;5028575;27;99600;-75
2023/12/24 01:44:38;;;;;;;4.60;4.10;;;;;;;6.48;78.73;99969.03;5030401;27;96698;-76
2023/12/24 01:47:07;;;;;;;5.95;4.50;;;;;;;6.59;78.40;99961.69;5028912;27;97433;-75
2023/12/24 01:49:34;;;;;;;6.05;4.60;;;;;;;6.37;79.33;99960.59;5017284;27;98791;-75
2023/12/24 01:52:03;;;;;;;5.97;4.60;;;;;;;6.52;78.90;99957.53;5029724;27;97606;-75
2023/12/24 01:54:34;;;;;;;5.07;4.57;;;;;;;6.33;78.95;99964.25;5028005;27;97103;-76
2023/12/24 01:57:04;;;;;;;6.80;4.70;;;;;;;6.66;77.76;99949.22;5023266;27;96908;-76
2023/12/24 01:59:33;;;;;;;6.45;4.60;;;;;;;6.36;78.98;99956.28;5029990;27;100259;-75
2023/12/24 02:02:01;;;;;;;5.05;4.35;;;;;;;6.51;78.84;99952.31;5026271;27;100071;-76
2023/12/24 02:04:32;;;;;;;5.68;4.28;;;;;;;6.47;78.53;99946.31;5023705;27;96780;-76
2023/12/24 02:07:02;;;;;;;5.65;4.38;;;;;;;6.52;78.52;99943.53;5027527;27;97074;-76
2023/12/24 02:09:29;;;;;;;6.70;4.57;;;;;;;6.69;78.11;99942.13;5022640;27;99744;-76
2023/12/24 02:11:55;;;;;;;5.97;4.35;;;;;;;6.48;79.06;99931.44;5028251;27;97697;-76
2023/12/24 02:14:22;;;;;;;5.80;4.47;;;;;;;6.56;78.89;99932.91;5029496;27;96974;-76
2023/12/24 02:16:49;;;;;;;6.18;4.32;;;;;;;6.35;79.34;99925.72;5026356;27;97654;-76
2023/12/24 02:19:18;;;;;;;7.28;4.72;;;;;;;6.24;79.85;99926.03;5028213;27;99490;-76
2023/12/24 02:21:46;;;;;;;6.45;4.63;;;;;;;6.26;80.15;99925.97;5028652;27;98009;-75
2023/12/24 02:24:15;;;;;;;6.25;4.70;;;;;;;6.37;80.23;99929.97;5027658;27;96889;-76
2023/12/24 02:26:48;;;;;;;5.72;4.18;;;;;;;6.36;80.40;99928.28;5020581;27;96919;-75
2023/12/24 02:29:19;;;;;;;5.88;4.22;;;;;;;6.45;80.16;99926.25;5021473;27;97673;-76
2023/12/24 02:31:48;;;;;;;5.00;3.63;;;;;;;6.59;79.78;99929.31;5029104;27;99037;-75
2023/12/24 02:34:19;;;;;;;5.78;3.88;;;;;;;6.37;80.79;99926.50;5029889;27;96735;-76
2023/12/24 02:36:48;;;;;;;4.07;3.25;;;;;;;6.52;80.23;99918.16;5027473;27;97067;-76
2023/12/24 02:39:15;;;;;;;4.18;3.30;;;;;;;6.37;80.48;99918.63;5028402;27;98856;-79
2023/12/24 02:41:41;;;;;;;4.30;3.40;;;;;;;6.51;80.35;99921.69;5028257;27;100128;-77
2023/12/24 02:44:08;;;;;;;4.25;3.38;;;;;;;6.40;80.90;99914.16;5019629;27;97133;-75
2023/12/24 02:46:35;;;;;;;3.63;2.97;;;;;;;6.37;81.36;99913.38;5017899;27;98718;-75
2023/12/24 02:49:01;;;;;;;3.97;3.17;;;;;;;6.42;80.43;99913.25;5027789;27;97794;-75
2023/12/24 02:51:28;;;;;;;3.95;3.30;;;;;;;6.35;80.97;99900.34;5027340;27;99266;-76
2023/12/24 02:53:56;;;;;;;4.97;3.30;;;;;;;6.19;82.49;99896.47;5025309;27;97196;-75
2023/12/24 02:56:22;;;;;;;4.72;3.25;;;;;;;6.26;81.75;99899.75;5030410;27;97738;-76
2023/12/24 02:58:49;;;;;;;3.15;2.80;;;;;;;6.58;80.71;99896.94;5032005;27;98874;-75
2023/12/24 03:01:15;;;;;;;5.80;3.55;;;;;;;6.56;80.93;99890.91;5030858;27;99225;-75
2023/12/24 03:03:41;;;;;;;4.20;3.20;;;;;;;6.28;81.50;99879.59;5025747;27;96735;-75
2023/12/24 03:06:08;;;;;;;4.93;3.42;;;;;;;6.39;81.54;99885.34;5028785;27;98631;-76
2023/12/24 03:08:34;;;;;;;5.75;3.78;;;;;;;6.46;81.74;99888.63;5031658;27;98975;-76
2023/12/24 03:11:03;;;;;;;5.80;3.72;;;;;;;6.83;80.58;99896.16;5028526;27;99019;-77
2023/12/24 03:13:30;;;;;;;6.53;3.70;;;;;;;6.84;79.50;99880.34;5026007;27;96719;-77
2023/12/24 03:15:56;;;;;;;6.10;2.97;;;;;;;6.95;79.10;99870.34;5023638;27;97383;-76
2023/12/24 03:18:23;;;;;;;4.50;3.10;;;;;;;6.75;79.86;99864.91;5031141;27;99443;-76
2023/12/24 03:20:49;;;;;;;5.05;3.10;;;;;;;6.61;80.90;99869.75;5020081;27;98170;-76
2023/12/24 03:23:15;;;;;;;5.32;3.63;;;;;;;6.66;80.54;99866.06;5030896;27;96694;-76
2023/12/24 03:25:42;;;;;;;7.95;3.60;;;;;;;6.51;81.45;99868.31;5030739;27;97176;-76
2023/12/24 03:28:10;;;;;;;5.80;3.15;;;;;;;6.50;81.77;99861.38;5025812;27;98959;-76
2023/12/24 03:30:36;;;;;;;6.22;3.13;;;;;;;6.44;81.27;99854.53;5028858;27;99255;-76
2023/12/24 03:33:03;;;;;;;5.15;3.42;;;;;;;6.64;80.98;99853.88;5032323;27;96870;-77
2023/12/24 03:35:29;;;;;;;6.28;3.35;;;;;;;6.70;80.93;99848.44;5031771;27;96714;-76
2023/12/24 03:37:56;;;;;;;4.32;3.17;;;;;;;6.69;81.39;99850.22;5032259;27;99642;-77
2023/12/24 03:40:22;;;;;;;4.80;3.22;;;;;;;6.75;81.47;99841.28;5020591;27;98838;-77
2023/12/24 03:42:49;;;;;;;3.60;2.75;;;;;;;6.49;81.98;99834.28;5025333;27;96951;-76
2023/12/24 03:45:16;;;;;;;3.45;2.10;;;;;;;6.37;83.09;99822.41;5020775;27;97541;-76
2023/12/24 03:47:43;;;;;;;3.58;2.35;;;;;;;6.37;83.49;99834.66;5031596;27;99636;-76
2023/12/24 03:50:09;;;;;;;2.35;1.77;;;;;;;6.36;83.83;99828.59;5026694;27;98791;-76
2023/12/24 03:52:36;;;;;;;2.47;1.80;;;;;;;6.21;84.80;99833.47;5031778;27;97418;-76
2023/12/24 03:55:02;;;;;;;1.90;1.48;;;;;;;6.23;84.69;99826.41;5031655;27;96887;-77
2023/12/24 03:57:29;;;;;;;1.75;1.48;;;;;;;6.32;83.94;99820.84;5031251;27;97732;-76
2023/12/24 03:59:55;;;;;;;1.40;1.15;;;;;;;6.42;83.32;99824.03;5022902;27;99020;-75
2023/12/24 04:02:24;;;;;;;2.25;1.10;;;;;;;6.36;83.57;99827.72;5030284;27;97155;-77
2023/12/24 04:04:51;;;;;;;1.15;1.00;;;;;;;6.21;84.49;99823.81;5030725;27;96767;-78
2023/12/24 04:07:17;;;;;;;0.88;0.57;;;;;;;6.24;84.75;99813.22;5030827;27;98799;-77
2023/12/24 04:09:44;;;;;;;0.93;0.93;;;;;;;6.06;85.33;99811.19;5030701;27;99140;-77
2023/12/24 04:12:10;;;;;;;0.90;0.90;;;;;;;6.03;85.97;99819.19;5034280;27;96695;-76
2023/12/24 04:14:37;;;;;;;0.70;0.70;;;;;;;6.09;85.62;99811.09;5029475;27;96857;-77
2023/12/24 04:17:04;;;;;;;0.88;0.85;;;;;;;6.08;85.92;99804.13;5029833;27;98784;-77
2023/12/24 04:19:32;;;;;;;0.70;0.70;;;;;;;6.41;85.00;99794.31;5025998;27;101276;-77
2023/12/24 04:21:58;;;;;;;1.05;0.95;;;;;;;6.50;84.16;99796.59;5030333;27;97059;-77
2023/12/24 04:24:26;;;;;;;1.50;1.00;;;;;;;6.53;83.48;99799.13;5035573;27;97674;-77
2023/12/24 04:26:52;;;;;;;1.10;0.85;;;;;;;6.24;84.83;99778.25;5023963;27;99108;-76
2023/12/24 04:29:18;;;;;;;0.82;0.80;;;;;;;6.17;85.64;99782.00;5029934;27;98063;-77
2023/12/24 04:31:45;;;;;;;1.52;0.95;;;;;;;6.44;85.27;99783.69;5030855;27;96838;-77
2023/12/24 04:34:11;;;;;;;1.20;1.10;;;;;;;6.18;85.23;99781.06;5029944;27;96859;-76
2023/12/24 04:36:39;;;;;;;1.30;1.20;;;;;;;6.33;85.28;99791.94;5026462;27;100700;-77
2023/12/24 04:39:05;;;;;;;1.15;1.05;;;;;;;6.17;84.91;99779.38;5023934;27;98863;-77
2023/12/24 04:41:31;;;;;;;1.70;1.05;;;;;;;6.53;84.88;99787.78;5029449;27;96847;-77
2023/12/24 04:43:58;;;;;;;1.10;0.90;;;;;;;6.65;83.81;99782.09;5030232;27;96999;-77
2023/12/24 04:46:24;;;;;;;1.10;1.00;;;;;;;6.55;83.25;99778.97;5029196;27;99444;-77
2023/12/24 04:48:51;;;;;;;1.30;1.20;;;;;;;6.61;83.28;99781.38;5029003;27;98875;-77
2023/12/24 04:51:17;;;;;;;1.33;1.23;;;;;;;6.57;83.77;99769.25;5026645;27;96708;-77
2023/12/24 04:53:45;;;;;;;1.23;1.13;;;;;;;6.59;83.47;99770.06;5029180;27;97263;-76
2023/12/24 04:56:20;;;;;;;1.30;1.00;;;;;;;6.46;84.05;99771.38;5028201;27;99056;-76
2023/12/24 04:58:45;;;;;;;1.05;1.00;;;;;;;6.58;84.04;99770.09;5026051;27;97549;-76
2023/12/24 05:01:11;;;;;;;;;;;;;;;6.54;83.72;99768.50;5026980;27;96726;-76
2023/12/24 05:03:38;;;;;;;0.85;0.85;;;;;;;6.71;83.26;99772.25;5027416;27;96946;-76
2023/12/24 05:06:05;;;;;;;1.00;0.85;;;;;;;6.83;82.74;99759.63;5029585;27;98930;-76
2023/12/24 05:08:31;;;;;;;1.65;1.05;;;;;;;6.52;83.99;99750.19;5024993;27;98824;-77
2023/12/24 05:11:04;;;;;;;1.10;1.00;;;;;;;6.59;84.19;99751.69;5029633;27;96691;-76
2023/12/24 05:13:30;;;;;;;1.40;1.30;;;;;;;6.66;83.67;99740.06;5018658;27;97996;-76
2023/12/24 05:15:57;;;;;;;1.35;1.25;;;;;;;6.95;82.42;99746.03;5019400;27;99449;-76
2023/12/24 05:18:23;;;;;;;1.67;1.25;;;;;;;6.96;82.21;99748.59;5029415;27;101550;-76
2023/12/24 05:20:49;;;;;;;1.40;1.30;;;;;;;6.89;82.76;99739.25;5027769;27;97028;-77
2023/12/24 05:23:16;;;;;;;1.08;1.02;;;;;;;6.86;82.85;99755.09;5027933;27;97549;-77
2023/12/24 05:25:43;;;;;;;1.20;1.10;;;;;;;7.04;82.33;99743.06;5025430;27;99706;-76
2023/12/24 05:28:10;;;;;;;1.52;1.42;;;;;;;6.96;82.95;99750.34;5028514;27;98765;-77
2023/12/24 05:30:37;;;;;;;1.55;1.45;;;;;;;7.17;82.33;99733.81;5026925;27;98069;-77
2023/12/24 05:33:04;;;;;;;2.97;1.40;;;;;;;6.86;82.85;99744.59;5028376;27;97449;-76
2023/12/24 05:35:30;;;;;;;1.35;1.25;;;;;;;7.12;82.62;99735.75;5029825;27;97661;-77
2023/12/24 05:37:56;;;;;;;1.85;1.50;;;;;;;7.12;81.99;99741.88;5029929;27;97787;-77
2023/12/24 05:40:23;;;;;;;1.70;1.60;;;;;;;7.35;81.84;99727.03;5028885;27;96791;-77
2023/12/24 05:42:49;;;;;;;2.03;1.67;;;;;;;7.07;82.69;99727.19;5026931;27;96742;-75
2023/12/24 05:45:17;;;;;;;1.90;1.80;;;;;;;7.38;81.59;99716.38;5027536;27;99031;-75
2023/12/24 05:47:43;;;;;;;2.00;1.90;;;;;;;7.27;81.70;99723.81;5024442;27;98056;-75
2023/12/24 05:50:10;;;;;;;2.00;1.70;;;;;;;7.29;82.17;99719.34;5028922;27;96728;-76
2023/12/24 05:52:37;;;;;;;2.17;1.80;;;;;;;7.33;81.95;99719.19;5028513;27;96816;-77
2023/12/24 05:55:05;;;;;;;2.00;1.90;;;;;;;7.28;82.42;99713.25;5028343;27;98922;-79
2023/12/24 05:57:32;;;;;;;2.38;2.10;;;;;;;7.30;82.88;99716.66;5028781;27;98729;-78
2023/12/24 05:59:58;;;;;;;2.05;1.88;;;;;;;7.46;82.53;99715.16;5024456;27;97280;-78
2023/12/24 06:02:25;;;;;;;4.00;2.60;;;;;;;7.26;83.14;99709.81;5029117;27;97523;-78
2023/12/24 06:04:52;;;;;;;2.58;2.38;;;;;;;7.42;83.26;99704.81;5020268;27;101985;-79
2023/12/24 06:07:18;;;;;;;2.58;2.03;;;;;;;7.47;83.11;99706.38;5019168;27;102528;-78
2023/12/24 06:09:45;;;;;;;2.30;2.10;;;;;;;7.74;82.11;99707.06;5028367;27;96729;-78
2023/12/24 06:12:11;;;;;;;2.78;2.45;;;;;;;7.63;83.20;99703.13;5022078;27;97756;-77
2023/12/24 06:14:37;;;;;;;3.05;2.67;;;;;;;7.77;83.16;99698.16;5028051;27;99590;-77
2023/12/24 06:17:04;;;;;;;2.85;2.65;;;;;;;7.78;83.46;99695.47;5029218;27;99310;-77
2023/12/24 06:19:32;;;;;;;2.65;2.45;;;;;;;7.89;83.51;99693.25;5028574;27;97018;-78
2023/12/24 06:22:00;;;;;;;3.97;3.35;;;;;;;7.89;83.95;99697.66;5027953;27;97012;-77
2023/12/24 06:24:26;;;;;;;5.10;2.70;;;;;;;8.03;83.59;99700.56;5029653;27;99076;-77
2023/12/24 06:26:53;;;;;;;3.83;3.03;;;;;;;8.15;83.54;99696.56;5023662;27;99075;-77
2023/12/24 06:29:19;;;;;;;3.53;3.10;;;;;;;8.28;83.54;99696.00;5025279;27;97388;-78
2023/12/24 06:31:45;;;;;;;3.65;3.33;;;;;;;8.14;84.79;99690.44;5030323;27;96994;-77
2023/12/24 06:34:12;;;;;;;3.67;3.28;;;;;;;8.33;85.45;99693.22;5029987;27;98335;-77
2023/12/24 06:36:40;;;;;;;3.65;3.35;;;;;;;8.39;85.35;99692.94;5026914;27;98360;-78
2023/12/24 06:39:06;;;;;;;3.00;2.80;;;;;;;8.56;87.54;99685.16;5032655;27;98658;-78
2023/12/24 06:41:33;;;;;;;3.58;3.28;;;;;;;8.61;89.65;99691.06;5033074;27;98922;-78
2023/12/24 06:43:59;;;;;;;3.42;3.00;;;;;;;8.45;91.53;99691.81;5031924;27;101834;-78
2023/12/24 06:46:26;;;;;;;2.80;2.50;;;;;;;8.15;98.73;99689.53;5022041;27;99036;-77
2023/12/24 06:48:52;;;;;;;2.72;2.30;;;;;;;8.09;100.00;99688.94;5029108;27;97141;-78
2023/12/24 06:51:19;;;;;;;1.70;1.30;;;;;;;8.10;100.00;99694.13;5031265;27;101460;-77
2023/12/24 06:53:46;;;;;;;1.98;1.88;;;;;;;8.34;100.00;99685.22;5032023;27;99248;-76
2023/12/24 06:56:13;;;;;;;1.50;1.40;;;;;;;8.27;100.00;99678.47;5026205;27;97746;-76
2023/12/24 06:58:39;;;;;;;1.52;1.42;;;;;;;8.29;100.00;99681.91;5030515;27;97822;-77
2023/12/24 07:01:06;;;;;;;1.42;1.33;;;;;;;8.42;100.00;99674.38;5029445;27;97192;-78
2023/12/24 07:03:33;;;;;;;1.38;1.27;;;;;;;8.36;100.00;99675.50;5032280;27;99118;-79
2023/12/24 07:05:59;;;;;;;1.58;1.40;;;;;;;8.66;100.00;99673.28;5032304;27;98708;-78
2023/12/24 07:08:26;;;;;;;1.08;1.08;;;;;;;9.11;100.00;99672.13;5032686;27;96738;-80
2023/12/24 07:10:54;;;;;;;1.33;1.20;;;;;;;8.89;100.00;99669.63;5031662;27;98369;-77
2023/12/24 07:13:20;;;;;;;1.20;1.10;;;;;;;9.04;100.00;99665.44;5024590;27;98931;-76
2023/12/24 07:15:45;;;;;;;2.75;1.40;;;;;;;8.96;100.00;99659.66;5027931;27;99074;-76
2023/12/24 07:18:12;;;;;;;;;;;;;;;9.23;100.00;99665.44;5024045;27;96821;-77
2023/12/24 07:20:38;;;;;;;1.17;1.08;;;;;;;9.20;100.00;99659.38;5028067;27;97324;-77
2023/12/24 07:23:04;;;;;;;1.85;1.70;;;;;;;9.15;100.00;99655.25;5029254;27;97732;-77
2023/12/24 07:25:31;;;;;;;2.00;1.50;;;;;;;9.02;100.00;99652.31;5025501;27;101197;-77
2023/12/24 07:27:59;;;;;;;1.70;1.52;;;;;;;9.14;100.00;99653.53;5024448;27;97248;-77
2023/12/24 07:30:25;;;;;;;2.88;1.67;;;;;;;9.27;100.00;99652.03;5030583;27;97062;-76
2023/12/24 07:32:52;;;;;;;2.20;2.10;;;;;;;9.47;100.00;99658.97;5024377;27;98889;-75
2023/12/24 07:35:18;;;;;;;2.22;1.77;;;;;;;9.57;100.00;99657.63;5026131;27;99756;-77
2023/12/24 07:37:47;;;;;;;2.58;2.38;;;;;;;9.57;100.00;99657.63;5031603;27;96709;-80
2023/12/24 07:40:14;;;;;;;2.10;1.90;;;;;;;9.54;100.00;99660.41;5030670;27;97416;-78
2023/12/24 07:42:40;;;;;;;2.20;1.98;;;;;;;9.48;100.00;99648.38;5024212;27;101175;-78
2023/12/24 07:45:09;;;;;;;2.42;2.08;;;;;;;9.59;100.00;99658.38;5026143;27;98908;-78
2023/12/24 07:47:36;;;;;;;2.20;2.00;;;;;;;9.23;100.00;99662.81;5025326;27;97175;-78
2023/12/24 07:50:03;;;;;;;3.78;2.25;;;;;;;9.56;100.00;99655.91;5025520;27;100486;-77
2023/12/24 07:52:29;;;;;;;2.35;2.15;;;;;;;9.33;100.00;99654.38;5017228;27;99645;-77
2023/12/24 07:54:56;;;;;;;2.95;2.60;;;;;;;9.24;100.00;99668.00;5029281;27;98911;-78
2023/12/24 07:57:22;;;;;;;3.33;2.40;;;;;;;9.40;100.00;99665.47;5008220;27;97584;-77
2023/12/24 07:59:48;;;;;;;2.97;2.35;;;;;;;9.77;100.00;99661.94;5015287;27;97314;-77
2023/12/24 08:02:16;;;;;;;3.20;2.42;;;;;;;9.67;100.00;99661.50;5013942;27;98947;-78
2023/12/24 08:04:44;;;;;;;4.40;3.28;;;;;;;9.48;100.00;99653.66;5013038;27;99214;-77
2023/12/24 08:07:11;;;;;;;3.70;3.40;;;;;;;9.57;100.00;99661.13;5021900;27;97045;-78
2023/12/24 08:09:38;;;;;;;3.60;3.30;;;;;;;9.50;100.00;99653.56;5014997;27;98559;-77
2023/12/24 08:12:05;;;;;;;4.53;3.72;;;;;;;9.62;100.00;99665.31;5012090;27;99505;-77
2023/12/24 08:14:31;;;;;;;5.63;3.85;;;;;;;9.67;100.00;99658.03;5012871;27;98956;-77
2023/12/24 08:16:58;;;;;;;3.45;3.15;;;;;;;9.90;100.00;99663.03;5020510;27;96895;-77
2023/12/24 08:19:25;;;;;;;3.17;2.85;;;;;;;9.74;100.00;99660.28;5032265;27;96992;-78
2023/12/24 08:21:52;;;;;;;3.90;2.88;;;;;;;9.36;100.00;99671.84;5028079;27;98261;-78
2023/12/24 08:24:18;;;;;;;3.25;2.95;;;;;;;9.48;100.00;99656.28;5020010;27;98771;-78
2023/12/24 08:26:45;;;;;;;4.10;3.40;;;;;;;9.86;100.00;99659.69;5026416;27;97782;-77
2023/12/24 08:29:11;;;;;;;5.07;3.78;;;;;;;10.11;100.00;99661.94;5031648;27;98431;-78
2023/12/24 08:31:37;;;;;;;5.18;3.55;;;;;;;9.67;100.00;99655.38;5028933;28;99018;-77
2023/12/24 08:34:04;;;;;;;4.45;4.05;;;;;;;9.87;100.00;99664.03;5018632;27;98976;-77
2023/12/24 08:36:31;;;;;;;5.65;4.43;;;;;;;9.68;100.00;99657.94;5027924;27;96885;-78
2023/12/24 08:38:58;;;;;;;4.15;3.75;;;;;;;9.86;100.00;99662.31;5018051;27;97311;-78
2023/12/24 08:41:24;;;;;;;8.25;5.30;;;;;;;9.97;100.00;99665.31;5047161;27;99251;-78
2023/12/24 08:43:51;;;;;;;5.80;4.80;;;;;;;9.89;100.00;99653.41;5030345;27;97582;-80
2023/12/24 08:46:16;;;;;;;7.57;5.25;;;;;;;9.92;100.00;99643.53;5027641;27;96779;-79
2023/12/24 08:48:43;;;;;;;;;;;;;;;9.78;100.00;99643.38;5031242;27;97221;-79
2023/12/24 08:51:09;;;;;;;5.15;4.28;;;;;;;9.71;100.00;99649.91;5029041;27;98890;-78
2023/12/24 08:53:37;;;;;;;5.75;4.60;;;;;;;10.16;100.00;99643.25;5028703;27;99586;-78
2023/12/24 08:56:03;;;;;;;5.35;4.82;;;;;;;10.00;100.00;99651.06;5030746;27;97220;-78
2023/12/24 08:58:31;;;;;;;5.20;4.40;;;;;;;9.92;100.00;99648.81;5031054;27;96959;-79
2023/12/24 09:00:57;;;;;;;5.18;3.55;;;;;;;10.07;100.00;99664.81;5021652;27;99284;-80
2023/12/24 09:03:23;;;;;;;5.13;4.00;;;;;;;10.20;100.00;99656.22;5022735;27;98774;-78
2023/12/24 09:05:50;;;;;;;6.55;4.05;;;;;;;10.23;100.00;99652.59;5024247;27;97609;-75
2023/12/24 09:08:16;;;;;;;4.50;3.88;;;;;;;9.98;100.00;99660.84;5028403;27;96787;-76
2023/12/24 09:10:44;;;;;;;4.32;3.53;;;;;;;10.04;100.00;99663.22;5022945;27;99008;-76
2023/12/24 09:13:13;;;;;;;5.18;3.63;;;;;;;9.96;100.00;99647.75;5019502;27;98957;-77
2023/12/24 09:15:39;;;;;;;2.70;2.50;;;;;;;9.53;100.00;99634.94;5023356;27;98123;-77
2023/12/24 09:18:06;;;;;;;2.92;2.72;;;;;;;9.98;100.00;99648.50;5020337;27;97411;-77
2023/12/24 09:20:32;;;;;;;3.40;3.10;;;;;;;10.00;100.00;99644.00;5022099;27;99048;-77
2023/12/24 09:22:59;;;;;;;4.78;2.72;;;;;;;10.19;100.00;99649.25;5023997;27;99584;-77
2023/12/24 09:25:25;;;;;;;3.05;2.70;;;;;;;10.25;100.00;99650.72;5022687;27;96880;-77
2023/12/24 09:27:53;;;;;;;2.75;2.55;;;;;;;10.27;100.00;99641.78;5022983;27;96830;-76
2023/12/24 09:30:21;;;;;;;2.88;2.17;;;;;;;10.46;100.00;99644.31;5029991;27;99336;-76
2023/12/24 09:32:47;;;;;;;3.38;2.50;;;;;;;10.51;100.00;99650.22;5031558;27;99283;-77
2023/12/24 09:35:14;;;;;;;3.38;2.50;;;;;;;10.49;100.00;99644.19;5028868;27;96944;-77
2023/12/24 09:37:40;;;;;;;3.28;1.92;;;;;;;10.24;100.00;99649.84;5031390;27;96907;-77
2023/12/24 09:40:08;;;;;;;2.15;1.95;;;;;;;9.76;100.00;99644.38;5027509;27;98858;-77
2023/12/24 09:42:35;;;;;;;1.30;1.20;;;;;;;9.81;100.00;99652.94;5031490;27;98906;-78
2023/12/24 09:45:03;;;;;;;2.28;1.58;;;;;;;9.86;100.00;99643.00;5029312;27;97229;-77
2023/12/24 09:47:29;;;;;;;2.00;1.40;;;;;;;10.38;100.00;99638.56;5030980;27;96894;-77
2023/12/24 09:49:58;;;;;;;3.22;1.30;;;;;;;10.38;100.00;99635.94;5029815;27;99445;-78
2023/12/24 09:52:26;;;;;;;1.20;0.82;;;;;;;10.28;100.00;99626.81;5030674;27;99221;-77
2023/12/24 09:54:53;;;;;;;1.67;0.88;;;;;;;10.24;100.00;99625.25;5031121;27;96759;-77
2023/12/24 09:57:19;;;;;;;0.73;0.73;;;;;;;10.02;100.00;99640.44;5030684;27;97132;-77
2023/12/24 09:59:45;;;;;;;2.55;0.80;;;;;;;10.32;100.00;99636.25;5030571;27;98943;-77
2023/12/24 10:02:13;;;;;;;0.73;0.73;;;;;;;10.61;100.00;99630.31;5037340;27;98799;-77
2023/12/24 10:04:40;;;;;;;0.50;0.50;;;;;;;10.16;100.00;99630.91;5032289;27;96757;-76
2023/12/24 10:07:06;;;;;;;4.25;1.00;;;;;;;10.29;100.00;99629.38;5038867;27;96808;-76
2023/12/24 10:09:43;;;;;;;0.90;0.65;;;;;;;10.66;100.00;99616.84;5022736;27;98975;-76
2023/12/24 10:12:12;;;;;;;;;;;;;;;10.43;100.00;99606.66;5025188;27;99001;-76
2023/12/24 10:14:39;;;;;;;1.50;0.77;;;;;;;10.43;100.00;99620.72;5027823;27;96713;-77
2023/12/24 10:17:06;;;;;;;1.73;0.63;;;;;;;10.43;100.00;99611.94;5022130;27;96922;-77
2023/12/24 10:19:34;;;;;;;0.73;0.57;;;;;;;10.54;100.00;99617.50;5028901;27;99026;-77
2023/12/24 10:22:02;;;;;;;0.50;0.50;;;;;;;10.36;100.00;99614.06;5021620;27;98876;-77
2023/12/24 10:24:29;;;;;;;0.50;0.50;;;;;;;10.59;100.00;99613.69;5030433;28;97087;-77
2023/12/24 10:27:03;;;;;;;1.20;0.50;;;;;;;10.83;100.00;99605.38;5027436;27;97270;-78
2023/12/24 10:29:30;;;;;;;0.50;0.50;;;;;;;10.70;100.00;99607.81;5020257;27;98265;-77
2023/12/24 10:31:57;;;;;;;0.50;0.50;;;;;;;10.53;100.00;99614.00;5036805;27;99419;-77
2023/12/24 10:34:23;;;;;;;0.40;0.40;;;;;;;10.59;100.00;99604.91;5017770;27;97119;-77
2023/12/24 10:36:51;;;;;;;1.67;0.43;;;;;;;10.99;100.00;99596.53;5030099;27;96849;-77
2023/12/24 10:39:24;;;;;;;0.93;0.55;;;;;;;10.69;100.00;99596.41;5026502;27;102174;-77
2023/12/24 10:41:50;;;;;;;0.82;0.50;;;;;;;10.74;100.00;99604.09;5024009;27;99221;-77
2023/12/24 10:44:17;;;;;;;1.13;0.60;;;;;;;10.71;100.00;99599.81;5023719;27;97051;-76
2023/12/24 10:46:44;;;;;;;0.43;0.43;;;;;;;10.74;100.00;99599.66;5016337;28;96983;-79
2023/12/24 10:49:10;;;;;;;0.35;0.35;;;;;;;10.99;100.00;99590.38;5029342;27;98973;-77
2023/12/24 10:51:39;;;;;;;1.30;0.50;;;;;;;10.74;100.00;99591.72;5027081;27;99184;-77
2023/12/24 10:54:08;;;;;;;0.50;0.50;;;;;;;11.12;100.00;99588.75;5022810;27;97486;-77
2023/12/24 10:56:44;;;;;;;0.30;0.30;;;;;;;11.01;100.00;99584.09;5029886;27;96842;-78
2023/12/24 10:59:16;;;;;;;0.43;0.30;;;;;;;11.33;100.00;99576.97;5029424;27;99269;-78
2023/12/24 11:01:47;;;;;;;0.30;0.30;;;;;;;10.67;100.00;99571.88;5025221;28;97783;-78
2023/12/24 11:04:42;;;;;;;0.40;0.30;;;;;;;11.10;100.00;99575.63;5021447;27;97028;-77
2023/12/24 11:07:09;;;;;;;0.35;0.35;;;;;;;11.06;100.00;99566.16;5026259;27;97275;-78
2023/12/24 11:09:45;;;;;;;0.38;0.38;;;;;;;11.02;100.00;99571.72;5029103;27;100761;-78
2023/12/24 11:12:11;;;;;;;0.30;0.30;;;;;;;11.30;100.00;99577.13;5029603;28;97564;-78
2023/12/24 11:14:41;;;;;;;0.30;0.30;;;;;;;11.68;100.00;99567.03;5016654;27;96768;-77
2023/12/24 11:17:08;;;;;;;0.40;0.40;;;;;;;11.33;100.00;99565.53;5031548;27;96773;-77
2023/12/24 11:19:41;;;;;;;1.27;0.40;;;;;;;11.51;100.00;99573.28;5032468;27;99141;-77
2023/12/24 11:22:09;;;;;;;0.25;0.25;;;;;;;11.16;100.00;99566.47;5033649;27;101197;-77
2023/12/24 11:24:41;;;;;;;0.10;0.10;;;;;;;10.83;100.00;99563.09;5033746;27;96826;-79
2023/12/24 11:27:09;;;;;;;0.40;0.40;;;;;;;11.29;100.00;99564.03;5031054;27;96969;-78
2023/12/24 11:29:46;;;;;;;1.80;0.28;;;;;;;11.17;100.00;99565.56;5031603;27;97349;-78
2023/12/24 11:32:34;;;;;;;0.80;0.30;;;;;;;10.85;100.00;99563.84;5032959;27;100222;-78
2023/12/24 11:35:02;;;;;;;0.28;0.25;;;;;;;10.35;100.00;99543.69;5028328;27;96747;-78
2023/12/24 11:37:30;;;;;;;0.30;0.22;;;;;;;10.68;100.00;99548.94;5026138;27;97166;-78